Time;durP1;ratioP1;P1;durP2;ratioP2;P2;SDS_P1;SDS_P2;PMS_P1;PMS_P2;Temp;Humidity;BMP_temperature;BMP_pressure;BME280_temperature;BME280_humidity;BME280_pressure;Samples;Min_cycle;Max_cycle;Signal;HPM_P1;HPM_P2
2023/06/11 04:25:17;;;;;;;19.30;18.23;;;18.40;99.90;;;;;;4939907;28;20506;-72
2023/06/11 04:27:44;;;;;;;18.60;17.57;;;19.10;99.90;;;;;;4933403;29;20951;-72
2023/06/11 04:30:12;;;;;;;19.07;17.80;;;19.80;99.90;;;;;;4933841;29;20811;-72
2023/06/11 04:32:40;;;;;;;17.60;16.57;;;20.60;99.90;;;;;;4933609;29;20497;-72
2023/06/11 04:35:07;;;;;;;17.00;16.20;;;21.10;99.90;;;;;;4933278;29;20556;-72
2023/06/11 04:37:38;;;;;;;17.13;16.27;;;21.50;99.90;;;;;;4933241;29;20460;-72
2023/06/11 04:40:09;;;;;;;17.40;16.40;;;22.00;99.90;;;;;;4934154;29;20474;-72
2023/06/11 04:42:40;;;;;;;18.27;17.07;;;22.60;99.90;;;;;;4933613;29;20464;-72
2023/06/11 04:45:08;;;;;;;18.20;17.30;;;22.90;99.90;;;;;;4933682;29;20480;-72
2023/06/11 04:47:34;;;;;;;18.87;17.77;;;23.20;99.90;;;;;;4933457;29;20457;-72
2023/06/11 04:50:03;;;;;;;16.93;16.03;;;23.60;99.90;;;;;;4934036;29;20804;-73
2023/06/11 04:52:32;;;;;;;18.43;17.53;;;23.80;99.90;;;;;;4933736;29;20521;-73
2023/06/11 04:55:00;;;;;;;19.30;18.20;;;23.90;99.90;;;;;;4933908;29;20895;-73
2023/06/11 04:57:26;;;;;;;18.00;17.00;;;24.20;99.90;;;;;;4933816;29;20932;-73
2023/06/11 04:59:55;;;;;;;18.07;17.00;;;24.00;99.90;;;;;;4933655;29;20456;-73
2023/06/11 05:02:22;;;;;;;18.23;17.03;;;23.80;99.90;;;;;;4933455;29;20944;-73
2023/06/11 05:04:53;;;;;;;17.60;16.60;;;23.90;99.90;;;;;;4933230;29;20769;-74
2023/06/11 05:07:20;;;;;;;17.20;16.37;;;23.90;99.90;;;;;;4933574;29;20570;-74
2023/06/11 05:09:47;;;;;;;17.70;16.80;;;23.80;99.90;;;;;;4933342;29;20454;-73
2023/06/11 05:12:13;;;;;;;16.73;15.93;;;23.70;99.90;;;;;;4933104;29;20493;-73
2023/06/11 05:14:40;;;;;;;16.20;15.37;;;24.10;99.90;;;;;;4933317;29;20622;-73
2023/06/11 05:17:08;;;;;;;17.30;16.40;;;24.80;99.90;;;;;;4933385;29;20972;-74
2023/06/11 05:19:35;;;;;;;17.57;16.63;;;25.40;99.60;;;;;;4933153;29;20465;-74
2023/06/11 05:22:01;;;;;;;16.10;15.30;;;25.30;99.70;;;;;;4934857;29;20561;-73
2023/06/11 05:24:29;;;;;;;16.57;15.63;;;25.80;98.60;;;;;;4952560;28;20816;-73
2023/06/11 05:26:56;;;;;;;17.07;16.17;;;26.20;97.60;;;;;;4952812;28;20464;-73
2023/06/11 05:29:23;;;;;;;16.67;15.87;;;26.40;97.40;;;;;;4952737;28;20547;-72
2023/06/11 05:31:50;;;;;;;16.23;15.33;;;26.50;97.10;;;;;;4952069;28;21234;-73
2023/06/11 05:34:18;;;;;;;17.80;16.77;;;26.60;96.40;;;;;;4952454;28;20822;-73
2023/06/11 05:36:45;;;;;;;16.30;15.60;;;26.90;95.80;;;;;;4952269;28;20578;-73
2023/06/11 05:39:12;;;;;;;17.20;16.30;;;27.60;94.50;;;;;;4952345;28;20520;-74
2023/06/11 05:41:39;;;;;;;16.27;15.57;;;27.80;93.70;;;;;;4949199;28;20812;-75
2023/06/11 05:44:06;;;;;;;17.10;16.30;;;28.00;92.80;;;;;;4952162;28;20448;-74
2023/06/11 05:46:32;;;;;;;16.10;15.40;;;28.10;92.30;;;;;;4952110;28;20532;-74
2023/06/11 05:48:59;;;;;;;16.90;16.20;;;27.70;93.10;;;;;;4952185;28;20472;-74
2023/06/11 05:51:27;;;;;;;16.33;15.33;;;27.80;92.90;;;;;;4952197;28;20523;-74
2023/06/11 05:53:54;;;;;;;17.17;16.27;;;27.90;92.40;;;;;;4952190;28;20461;-74
2023/06/11 05:56:21;;;;;;;16.17;15.47;;;28.30;92.10;;;;;;4951780;28;20531;-74
2023/06/11 05:58:48;;;;;;;15.80;15.10;;;28.40;91.60;;;;;;4952017;28;20457;-75
2023/06/11 06:01:15;;;;;;;17.13;16.33;;;28.40;91.70;;;;;;4952361;28;20460;-79
2023/06/11 06:03:41;;;;;;;16.70;16.00;;;28.00;92.30;;;;;;4954110;28;20551;-80
2023/06/11 06:06:09;;;;;;;16.97;16.27;;;28.30;91.80;;;;;;4955381;28;20483;-80
2023/06/11 06:08:37;;;;;;;17.50;16.43;;;28.60;91.40;;;;;;4951848;28;20452;-80
2023/06/11 06:11:03;;;;;;;17.07;16.37;;;29.20;90.50;;;;;;4952090;28;20463;-80
2023/06/11 06:13:30;;;;;;;16.40;15.70;;;29.80;88.30;;;;;;4951745;28;20496;-80
2023/06/11 06:15:57;;;;;;;16.70;16.00;;;29.70;88.20;;;;;;4952159;28;20778;-80
2023/06/11 06:18:23;;;;;;;16.23;15.43;;;29.90;87.00;;;;;;4952106;28;20449;-80
2023/06/11 06:20:50;;;;;;;17.47;16.43;;;30.00;87.00;;;;;;4946231;28;20492;-75
2023/06/11 06:23:17;;;;;;;17.30;16.20;;;30.10;84.30;;;;;;4951096;28;20874;-74
2023/06/11 06:25:45;;;;;;;16.60;15.80;;;30.30;83.50;;;;;;4951481;28;20471;-75
2023/06/11 06:28:12;;;;;;;15.77;15.07;;;29.90;82.90;;;;;;4951704;28;20456;-75
2023/06/11 06:30:39;;;;;;;17.60;16.80;;;28.80;85.70;;;;;;4951560;28;20463;-75
2023/06/11 06:33:06;;;;;;;15.93;15.13;;;27.40;90.10;;;;;;4950937;28;20496;-74
2023/06/11 06:35:33;;;;;;;16.03;15.23;;;26.90;91.10;;;;;;4951731;28;20943;-74
2023/06/11 06:38:00;;;;;;;16.70;15.90;;;27.20;91.30;;;;;;4951610;28;20453;-74
2023/06/11 06:40:27;;;;;;;15.37;14.67;;;27.30;90.80;;;;;;4951705;28;20455;-74
2023/06/11 06:42:55;;;;;;;15.70;14.90;;;27.50;90.40;;;;;;4951557;28;20472;-73
2023/06/11 06:45:22;;;;;;;15.97;14.97;;;26.90;91.20;;;;;;4951478;28;20503;-72
2023/06/11 06:47:48;;;;;;;17.03;16.30;;;26.90;91.10;;;;;;4951463;28;20448;-73
2023/06/11 06:50:15;;;;;;;16.27;15.47;;;26.80;91.10;;;;;;4951367;28;20479;-73
2023/06/11 06:52:42;;;;;;;14.97;14.37;;;26.40;91.50;;;;;;4951587;28;20579;-73
2023/06/11 06:55:09;;;;;;;15.80;15.00;;;25.90;92.40;;;;;;4951511;28;20460;-73
2023/06/11 06:57:36;;;;;;;16.40;15.50;;;25.90;92.20;;;;;;4951400;28;20464;-74
2023/06/11 07:00:05;;;;;;;14.97;14.27;;;26.10;92.50;;;;;;4951397;28;20527;-75
2023/06/11 07:02:32;;;;;;;16.57;15.77;;;26.50;91.50;;;;;;4951490;28;20492;-75
2023/06/11 07:05:00;;;;;;;16.80;16.00;;;26.20;91.70;;;;;;4951739;28;20845;-80
2023/06/11 07:07:27;;;;;;;16.67;15.77;;;26.30;91.70;;;;;;4949370;28;20483;-79
2023/06/11 07:09:53;;;;;;;16.33;15.63;;;26.30;91.80;;;;;;4950710;28;20954;-78
2023/06/11 07:12:21;;;;;;;17.00;16.13;;;26.40;91.40;;;;;;4949187;28;20606;-77
2023/06/11 07:14:47;;;;;;;16.30;15.50;;;26.10;91.80;;;;;;4950850;28;20781;-78
2023/06/11 07:17:15;;;;;;;16.50;15.60;;;26.40;91.50;;;;;;4951000;28;20459;-80
2023/06/11 07:19:42;;;;;;;15.80;15.10;;;26.60;91.20;;;;;;4951041;28;20456;-78
2023/06/11 07:22:09;;;;;;;16.37;15.50;;;27.20;90.40;;;;;;4950892;28;20468;-78
2023/06/11 07:24:36;;;;;;;16.03;15.33;;;27.80;89.00;;;;;;4950715;28;20808;-78
2023/06/11 07:27:03;;;;;;;16.60;15.80;;;27.70;88.80;;;;;;4950869;28;20591;-78
2023/06/11 07:29:30;;;;;;;17.67;16.80;;;27.90;87.90;;;;;;4950627;28;20961;-77
2023/06/11 07:31:56;;;;;;;16.70;15.93;;;27.90;85.30;;;;;;4950779;28;20456;-77
2023/06/11 07:34:25;;;;;;;16.30;15.50;;;27.80;86.10;;;;;;4950693;28;20448;-78
2023/06/11 07:36:51;;;;;;;16.70;15.90;;;27.80;86.10;;;;;;4950531;28;20456;-78
2023/06/11 07:39:18;;;;;;;16.03;15.33;;;27.60;85.20;;;;;;4950622;28;20488;-78
2023/06/11 07:41:45;;;;;;;16.43;15.60;;;27.80;85.10;;;;;;4950487;28;20463;-77
2023/06/11 07:44:12;;;;;;;17.27;16.47;;;27.70;85.20;;;;;;4951873;28;20452;-78
2023/06/11 07:46:38;;;;;;;17.43;16.50;;;27.50;84.80;;;;;;4954102;28;20453;-77
2023/06/11 07:49:05;;;;;;;16.90;16.10;;;27.70;84.40;;;;;;4954089;28;20500;-77
2023/06/11 07:51:33;;;;;;;16.10;15.33;;;28.00;84.10;;;;;;4954069;28;20464;-78
2023/06/11 07:54:00;;;;;;;16.57;15.83;;;28.40;80.70;;;;;;4954076;28;20495;-78
2023/06/11 07:56:27;;;;;;;17.03;16.23;;;28.70;80.40;;;;;;4954346;28;20837;-78
2023/06/11 07:58:54;;;;;;;15.87;15.20;;;28.60;80.50;;;;;;4954088;28;20461;-77
2023/06/11 08:01:21;;;;;;;16.70;15.70;;;28.40;79.80;;;;;;4953851;28;20551;-78
2023/06/11 08:03:47;;;;;;;17.13;16.33;;;28.70;79.40;;;;;;4953835;28;20604;-77
2023/06/11 08:06:15;;;;;;;16.40;15.60;;;28.60;77.20;;;;;;4954078;28;20456;-77
2023/06/11 08:08:43;;;;;;;16.70;15.90;;;28.30;78.70;;;;;;4953857;28;20519;-78
2023/06/11 08:11:09;;;;;;;16.10;15.40;;;28.60;77.80;;;;;;4953942;28;20966;-77
2023/06/11 08:13:38;;;;;;;15.67;14.80;;;28.50;77.10;;;;;;4953719;28;20488;-77
2023/06/11 08:16:05;;;;;;;15.60;14.60;;;28.20;78.10;;;;;;4953663;28;20825;-76
2023/06/11 08:18:31;;;;;;;16.73;15.83;;;28.20;76.70;;;;;;4953662;28;20452;-77
2023/06/11 08:20:58;;;;;;;15.83;15.13;;;27.90;77.10;;;;;;4953737;28;20452;-77
2023/06/11 08:23:25;;;;;;;16.10;15.30;;;28.10;77.10;;;;;;4953297;28;21000;-77
2023/06/11 08:25:58;;;;;;;16.07;15.13;;;28.40;75.90;;;;;;4953407;28;20452;-77
2023/06/11 08:28:25;;;;;;;16.10;15.30;;;28.30;74.00;;;;;;4953727;28;20456;-77
2023/06/11 08:30:51;;;;;;;15.60;14.90;;;27.90;76.00;;;;;;4953208;28;20476;-77
2023/06/11 08:33:18;;;;;;;15.80;15.00;;;28.00;76.30;;;;;;4953136;28;20488;-77
2023/06/11 08:35:45;;;;;;;15.10;14.40;;;28.10;75.40;;;;;;4953384;28;20464;-76
2023/06/11 08:38:12;;;;;;;16.30;15.40;;;28.00;75.30;;;;;;4953478;28;20456;-76
2023/06/11 08:40:41;;;;;;;15.30;14.60;;;28.20;76.80;;;;;;4953228;28;20546;-76
2023/06/11 08:43:09;;;;;;;16.13;15.33;;;28.50;75.00;;;;;;4953119;28;20515;-76
2023/06/11 08:45:36;;;;;;;16.37;15.57;;;29.10;72.90;;;;;;4953183;28;20455;-77
2023/06/11 08:48:05;;;;;;;16.30;15.60;;;29.60;70.60;;;;;;4953127;28;20457;-77
2023/06/11 08:50:32;;;;;;;16.60;15.60;;;29.50;70.60;;;;;;4952816;28;20488;-78
2023/06/11 08:53:01;;;;;;;16.23;15.40;;;29.60;69.90;;;;;;4952932;28;20496;-77
2023/06/11 08:55:28;;;;;;;15.93;15.23;;;29.30;70.10;;;;;;4952594;28;20973;-78
2023/06/11 08:57:55;;;;;;;16.53;15.80;;;29.10;71.10;;;;;;4953141;28;20452;-79
2023/06/11 09:00:24;;;;;;;16.37;15.53;;;28.70;72.40;;;;;;4952719;28;20461;-78
2023/06/11 09:02:50;;;;;;;16.53;15.67;;;29.00;72.30;;;;;;4952710;28;20936;-76
2023/06/11 09:05:17;;;;;;;16.03;15.23;;;29.30;71.10;;;;;;4952541;28;20452;-76
2023/06/11 09:07:49;;;;;;;16.23;15.43;;;30.20;68.40;;;;;;4952615;28;20824;-76
2023/06/11 09:10:16;;;;;;;16.07;15.27;;;31.00;67.00;;;;;;4952696;28;20464;-77
2023/06/11 09:12:43;;;;;;;15.70;15.00;;;30.90;65.50;;;;;;4952653;28;20509;-76
2023/06/11 09:15:12;;;;;;;16.90;16.10;;;30.80;66.50;;;;;;4952722;28;20449;-78
2023/06/11 09:17:41;;;;;;;15.80;15.13;;;31.40;65.20;;;;;;4952475;28;20453;-77
2023/06/11 09:20:11;;;;;;;15.83;15.13;;;32.00;59.10;;;;;;4952484;28;20452;-76
2023/06/11 09:22:39;;;;;;;15.87;15.07;;;32.30;58.40;;;;;;4952300;28;20484;-76
2023/06/11 09:25:09;;;;;;;15.97;15.07;;;32.80;57.30;;;;;;4952064;28;20492;-77
2023/06/11 09:27:36;;;;;;;16.40;15.60;;;31.90;57.40;;;;;;4952041;28;20488;-77
2023/06/11 09:30:10;;;;;;;16.93;16.13;;;31.60;57.50;;;;;;4952029;28;20914;-76
2023/06/11 09:32:43;;;;;;;16.27;15.50;;;31.80;56.20;;;;;;4951964;28;20487;-76
2023/06/11 09:35:10;;;;;;;16.13;15.43;;;32.80;55.60;;;;;;4952241;28;20456;-75
2023/06/11 09:37:43;;;;;;;16.30;15.60;;;33.30;54.90;;;;;;4952059;28;20452;-75
2023/06/11 09:40:11;;;;;;;16.30;15.23;;;32.80;54.60;;;;;;4952093;28;20453;-76
2023/06/11 09:42:38;;;;;;;17.33;16.47;;;32.20;55.40;;;;;;4951970;28;20444;-76
2023/06/11 09:45:07;;;;;;;16.20;15.37;;;31.90;55.30;;;;;;4951858;28;20448;-77
2023/06/11 09:47:37;;;;;;;17.00;16.30;;;32.10;55.30;;;;;;4951642;28;20950;-77
2023/06/11 09:50:07;;;;;;;15.63;15.00;;;32.40;55.30;;;;;;4951811;28;20456;-77
2023/06/11 09:52:35;;;;;;;16.10;15.20;;;32.80;51.40;;;;;;4951631;28;20801;-77
2023/06/11 09:55:04;;;;;;;15.70;15.00;;;32.10;51.20;;;;;;4951609;28;20531;-77
2023/06/11 09:57:32;;;;;;;15.90;15.10;;;31.70;52.20;;;;;;4951583;28;20544;-77
2023/06/11 10:00:00;;;;;;;16.50;15.70;;;31.50;52.80;;;;;;4951160;28;20457;-76
2023/06/11 10:02:27;;;;;;;15.27;14.60;;;31.60;53.00;;;;;;4950878;28;20457;-76
2023/06/11 10:04:54;;;;;;;16.07;14.93;;;31.60;53.20;;;;;;4950966;28;20448;-76
2023/06/11 10:07:24;;;;;;;16.37;15.67;;;32.10;51.50;;;;;;4949933;28;20460;-76
2023/06/11 10:09:53;;;;;;;16.87;15.97;;;31.60;51.10;;;;;;4950843;28;20453;-76
2023/06/11 10:12:20;;;;;;;15.93;15.23;;;31.30;52.10;;;;;;4950663;28;20456;-76
2023/06/11 10:14:51;;;;;;;15.90;15.20;;;30.90;53.10;;;;;;4950572;28;20496;-76
2023/06/11 10:17:18;;;;;;;16.33;15.53;;;30.20;53.80;;;;;;4950553;28;20823;-77
2023/06/11 10:19:49;;;;;;;17.53;16.63;;;30.30;54.40;;;;;;4950514;28;20460;-77
2023/06/11 10:22:31;;;;;;;16.70;15.90;;;30.80;53.50;;;;;;4950390;28;20480;-77
2023/06/11 10:25:00;;;;;;;16.97;16.10;;;31.50;52.30;;;;;;4950580;28;20477;-77
2023/06/11 10:27:36;;;;;;;17.47;16.57;;;31.80;51.50;;;;;;4950840;28;20483;-76
2023/06/11 10:30:04;;;;;;;17.40;16.50;;;32.20;50.20;;;;;;4950147;28;20741;-75
2023/06/11 10:32:31;;;;;;;17.10;16.40;;;32.60;50.30;;;;;;4950069;28;20456;-76
2023/06/11 10:34:59;;;;;;;17.10;16.23;;;32.60;49.80;;;;;;4950348;28;20547;-76
2023/06/11 10:37:35;;;;;;;17.63;16.70;;;32.60;50.00;;;;;;4950461;28;20461;-77
2023/06/11 10:40:03;;;;;;;16.33;15.57;;;32.20;50.00;;;;;;4950073;28;20539;-76
2023/06/11 10:42:36;;;;;;;16.27;15.57;;;30.90;52.40;;;;;;4950179;28;20460;-76
2023/06/11 10:45:07;;;;;;;16.37;15.57;;;30.60;53.10;;;;;;4950040;28;20456;-76
2023/06/11 10:47:41;;;;;;;16.90;16.10;;;31.20;52.50;;;;;;4950264;28;20543;-76
2023/06/11 10:50:10;;;;;;;16.80;16.00;;;31.00;53.10;;;;;;4950191;28;20532;-76
2023/06/11 10:52:49;;;;;;;16.10;15.30;;;30.80;53.60;;;;;;4950069;28;20459;-76
2023/06/11 10:55:17;;;;;;;16.93;16.07;;;30.50;54.00;;;;;;4950143;28;20479;-77
2023/06/11 10:57:44;;;;;;;16.97;16.00;;;31.00;53.50;;;;;;4950165;28;20449;-76
2023/06/11 11:00:12;;;;;;;16.80;16.10;;;31.20;53.00;;;;;;4950372;28;20459;-76
2023/06/11 11:02:39;;;;;;;17.23;16.10;;;30.60;53.10;;;;;;4950384;28;20852;-76
2023/06/11 11:05:09;;;;;;;18.23;17.33;;;30.40;54.40;;;;;;4949973;28;20464;-76
2023/06/11 11:07:36;;;;;;;16.50;15.60;;;31.00;53.20;;;;;;4949884;28;20964;-76
2023/06/11 11:10:06;;;;;;;17.27;16.27;;;31.30;52.30;;;;;;4950026;28;20537;-76
2023/06/11 11:12:38;;;;;;;16.60;15.90;;;31.60;52.40;;;;;;4949855;28;20445;-77
2023/06/11 11:15:06;;;;;;;18.20;17.03;;;32.10;51.00;;;;;;4949993;28;20551;-77
2023/06/11 11:17:32;;;;;;;17.43;16.63;;;32.20;50.30;;;;;;4950138;28;21104;-77
2023/06/11 11:19:59;;;;;;;16.77;16.07;;;32.20;51.50;;;;;;4953710;28;20457;-76
2023/06/11 11:22:27;;;;;;;16.27;15.57;;;32.20;50.60;;;;;;4953934;28;20476;-76
2023/06/11 11:24:53;;;;;;;17.60;16.57;;;32.30;50.00;;;;;;4953665;28;20555;-76
2023/06/11 11:27:24;;;;;;;16.90;16.10;;;32.60;49.50;;;;;;4953663;28;20453;-76
2023/06/11 11:29:54;;;;;;;16.90;16.20;;;32.80;48.40;;;;;;4953440;28;20464;-77
2023/06/11 11:32:21;;;;;;;16.33;15.53;;;33.40;46.50;;;;;;4953120;28;20452;-75
2023/06/11 11:34:48;;;;;;;19.57;18.27;;;33.70;45.40;;;;;;4953198;28;20503;-76
2023/06/11 11:37:15;;;;;;;17.50;16.80;;;33.30;46.70;;;;;;4953369;28;20448;-75
2023/06/11 11:39:42;;;;;;;16.60;15.80;;;32.70;48.90;;;;;;4953864;28;20483;-76
2023/06/11 11:42:09;;;;;;;17.30;16.50;;;32.40;48.70;;;;;;4953572;28;20444;-77
2023/06/11 11:44:41;;;;;;;16.83;16.03;;;32.60;47.50;;;;;;4953339;28;20452;-76
2023/06/11 11:47:09;;;;;;;16.53;15.80;;;31.40;48.10;;;;;;4953225;28;20543;-76
2023/06/11 11:49:36;;;;;;;16.10;15.30;;;30.60;50.40;;;;;;4952981;28;20560;-77
2023/06/11 11:52:03;;;;;;;16.40;15.50;;;31.40;49.70;;;;;;4952988;28;20789;-77
2023/06/11 11:54:30;;;;;;;15.70;15.00;;;31.70;48.50;;;;;;4952870;28;20499;-77
2023/06/11 11:57:01;;;;;;;16.47;15.67;;;31.90;48.30;;;;;;4953045;28;20456;-77
2023/06/11 11:59:28;;;;;;;16.97;15.90;;;32.70;47.90;;;;;;4953091;28;20452;-76
2023/06/11 12:01:57;;;;;;;15.27;14.57;;;32.60;46.90;;;;;;4953066;28;20457;-76
2023/06/11 12:04:35;;;;;;;17.07;16.10;;;32.40;46.30;;;;;;4953229;28;20523;-77
2023/06/11 12:07:06;;;;;;;15.90;15.20;;;32.80;46.20;;;;;;4952702;28;20463;-76
2023/06/11 12:09:33;;;;;;;17.20;16.10;;;33.50;45.90;;;;;;4952591;28;20457;-77
2023/06/11 12:11:59;;;;;;;16.13;15.53;;;34.60;44.50;;;;;;4952828;28;20461;-76
2023/06/11 12:14:26;;;;;;;16.53;15.83;;;34.50;44.00;;;;;;4952763;28;20823;-77
2023/06/11 12:16:53;;;;;;;17.37;16.60;;;33.90;44.30;;;;;;4952583;28;20460;-76
2023/06/11 12:19:21;;;;;;;16.23;15.53;;;34.20;44.30;;;;;;4952489;28;20491;-76
2023/06/11 12:21:48;;;;;;;16.77;15.97;;;33.50;44.20;;;;;;4952222;28;20476;-76
2023/06/11 12:24:15;;;;;;;16.20;15.40;;;32.60;43.60;;;;;;4952346;28;20476;-76
2023/06/11 12:26:42;;;;;;;16.20;15.50;;;32.50;45.60;;;;;;4952676;28;20457;-76
2023/06/11 12:29:10;;;;;;;16.80;16.10;;;32.80;44.60;;;;;;4952419;28;20448;-77
2023/06/11 12:31:37;;;;;;;17.20;16.50;;;33.90;43.60;;;;;;4952057;28;20882;-74
2023/06/11 12:34:04;;;;;;;15.87;15.23;;;34.10;42.80;;;;;;4952386;28;20492;-77
2023/06/11 12:36:32;;;;;;;16.83;16.10;;;33.90;42.70;;;;;;4952400;28;21041;-76
2023/06/11 12:39:00;;;;;;;16.87;16.07;;;33.10;42.90;;;;;;4952736;28;20555;-77
2023/06/11 12:41:27;;;;;;;17.40;16.50;;;32.80;44.00;;;;;;4952841;28;21030;-77
2023/06/11 12:43:54;;;;;;;16.97;16.27;;;32.70;44.20;;;;;;4952774;28;20470;-77
2023/06/11 12:46:20;;;;;;;16.77;16.07;;;32.90;44.20;;;;;;4952562;28;20471;-76
2023/06/11 12:48:47;;;;;;;17.53;16.70;;;33.80;43.00;;;;;;4961598;28;20516;-76
2023/06/11 12:51:14;;;;;;;17.60;16.57;;;34.20;43.10;;;;;;4963142;28;20456;-76
2023/06/11 12:53:42;;;;;;;16.67;15.97;;;34.30;42.70;;;;;;4955449;28;20524;-76
2023/06/11 12:56:09;;;;;;;17.00;16.20;;;34.90;42.70;;;;;;4953361;28;20453;-77
2023/06/11 12:58:35;;;;;;;18.50;17.50;;;34.90;42.10;;;;;;4954761;28;20826;-76
2023/06/11 13:01:03;;;;;;;17.60;16.80;;;34.30;42.30;;;;;;4955479;28;20460;-77
2023/06/11 13:03:30;;;;;;;17.20;16.20;;;33.20;42.90;;;;;;4954585;28;20476;-76
2023/06/11 13:05:57;;;;;;;17.03;16.23;;;32.10;44.40;;;;;;4952876;28;20461;-75
2023/06/11 13:08:24;;;;;;;17.13;16.30;;;31.50;46.10;;;;;;4951825;28;20453;-75
2023/06/11 13:10:52;;;;;;;16.80;15.90;;;31.70;45.80;;;;;;4951305;28;20457;-75
2023/06/11 13:13:19;;;;;;;17.83;16.90;;;32.10;44.70;;;;;;4951435;28;20519;-76
2023/06/11 13:15:46;;;;;;;17.20;16.30;;;33.10;43.00;;;;;;4951536;28;20498;-76
2023/06/11 13:18:13;;;;;;;17.37;16.60;;;32.40;43.70;;;;;;4951652;28;20457;-76
2023/06/11 13:20:40;;;;;;;17.37;16.57;;;32.10;44.50;;;;;;4951705;28;20466;-75
2023/06/11 13:23:07;;;;;;;18.40;17.43;;;31.50;46.30;;;;;;4951040;28;20480;-76
2023/06/11 13:25:34;;;;;;;17.77;16.97;;;31.00;46.60;;;;;;4951535;28;20453;-76
2023/06/11 13:28:02;;;;;;;16.47;15.67;;;31.30;46.90;;;;;;4951626;28;20487;-76
2023/06/11 13:30:28;;;;;;;17.83;16.83;;;31.50;46.60;;;;;;4951779;28;20460;-76
2023/06/11 13:32:55;;;;;;;18.70;17.53;;;31.90;46.50;;;;;;4951215;28;20456;-75
2023/06/11 13:35:22;;;;;;;17.40;16.60;;;32.30;44.80;;;;;;4950984;28;20591;-75
2023/06/11 13:37:49;;;;;;;16.53;15.83;;;32.50;44.10;;;;;;4950953;28;20870;-75
2023/06/11 13:40:17;;;;;;;17.20;16.50;;;32.80;42.90;;;;;;4950827;28;20459;-75
2023/06/11 13:42:44;;;;;;;18.13;17.23;;;32.80;43.20;;;;;;4951012;28;20461;-76
2023/06/11 13:45:12;;;;;;;16.40;15.70;;;32.60;43.80;;;;;;4951333;28;20455;-77
2023/06/11 13:47:39;;;;;;;17.73;16.80;;;31.70;44.50;;;;;;4951485;28;20461;-76
2023/06/11 13:50:06;;;;;;;16.50;15.80;;;30.70;45.60;;;;;;4951246;28;20488;-77
2023/06/11 13:52:33;;;;;;;16.47;15.57;;;30.30;46.30;;;;;;4951024;28;20461;-77
2023/06/11 13:55:00;;;;;;;16.23;15.53;;;30.10;46.40;;;;;;4951064;28;20488;-77
2023/06/11 13:57:27;;;;;;;17.07;16.10;;;30.70;45.90;;;;;;4951567;28;20835;-77
2023/06/11 13:59:54;;;;;;;15.80;15.10;;;31.30;44.50;;;;;;4951384;28;20539;-78
2023/06/11 14:02:22;;;;;;;17.27;16.47;;;31.80;43.40;;;;;;4951218;28;20464;-77
2023/06/11 14:04:50;;;;;;;17.27;16.27;;;32.20;42.60;;;;;;4951091;28;20480;-77
2023/06/11 14:07:17;;;;;;;17.10;16.30;;;32.40;42.80;;;;;;4950859;28;20488;-76
2023/06/11 14:09:43;;;;;;;17.80;16.80;;;32.70;41.70;;;;;;4951046;28;20938;-76
2023/06/11 14:12:12;;;;;;;16.90;16.10;;;33.10;41.70;;;;;;4950947;28;20797;-76
2023/06/11 14:14:38;;;;;;;16.43;15.73;;;32.80;41.50;;;;;;4950700;28;20488;-76
2023/06/11 14:17:06;;;;;;;16.60;15.80;;;32.70;41.70;;;;;;4950771;28;20789;-77
2023/06/11 14:19:34;;;;;;;16.40;15.60;;;32.60;41.50;;;;;;4950593;28;20989;-77
2023/06/11 14:22:00;;;;;;;16.17;15.43;;;32.70;41.40;;;;;;4950495;28;20477;-77
2023/06/11 14:24:27;;;;;;;15.60;14.90;;;32.70;40.80;;;;;;4950652;28;20481;-76
2023/06/11 14:26:54;;;;;;;16.00;15.30;;;32.60;41.50;;;;;;4950456;28;20459;-77
2023/06/11 14:29:22;;;;;;;16.90;16.00;;;32.00;42.00;;;;;;4950907;28;20453;-78
2023/06/11 14:31:48;;;;;;;16.17;15.47;;;32.10;42.50;;;;;;4950825;28;20460;-77
2023/06/11 14:34:15;;;;;;;16.83;15.83;;;31.70;43.00;;;;;;4950782;28;20484;-78
2023/06/11 14:36:43;;;;;;;15.47;14.87;;;31.80;43.10;;;;;;4951134;28;20503;-76
2023/06/11 14:39:10;;;;;;;15.23;14.63;;;31.60;44.00;;;;;;4951216;28;20452;-77
2023/06/11 14:41:36;;;;;;;16.30;15.50;;;31.30;44.20;;;;;;4951022;28;20457;-77
2023/06/11 14:44:03;;;;;;;16.50;15.80;;;31.40;43.30;;;;;;4951123;28;20515;-77
2023/06/11 14:46:30;;;;;;;16.90;16.00;;;31.50;43.60;;;;;;4951065;28;20452;-77
2023/06/11 14:48:56;;;;;;;16.27;15.50;;;31.50;43.60;;;;;;4950621;28;20460;-77
2023/06/11 14:51:23;;;;;;;16.73;15.63;;;31.50;43.70;;;;;;4950607;28;20453;-78
2023/06/11 14:53:51;;;;;;;16.20;15.50;;;31.50;44.30;;;;;;4952410;28;20531;-78
2023/06/11 14:56:18;;;;;;;16.40;15.60;;;31.60;42.60;;;;;;4954082;28;20491;-79
2023/06/11 14:58:45;;;;;;;16.80;16.10;;;31.20;43.40;;;;;;4954360;28;20460;-79
2023/06/11 15:01:11;;;;;;;16.83;16.03;;;31.20;43.50;;;;;;4948717;28;20452;-78
2023/06/11 15:03:38;;;;;;;16.00;15.30;;;30.90;43.60;;;;;;4945000;29;20551;-78
2023/06/11 15:06:05;;;;;;;16.83;16.03;;;30.60;43.50;;;;;;4948677;29;20449;-78
2023/06/11 15:08:32;;;;;;;16.23;15.53;;;29.90;43.60;;;;;;4954525;28;20492;-78
2023/06/11 15:11:00;;;;;;;15.53;14.83;;;30.20;43.90;;;;;;4954499;29;20468;-78
2023/06/11 15:13:27;;;;;;;16.10;15.30;;;30.20;44.40;;;;;;4954611;29;20456;-78
2023/06/11 15:15:54;;;;;;;16.30;15.60;;;30.10;44.80;;;;;;4954138;29;20492;-79
2023/06/11 15:18:20;;;;;;;17.10;16.30;;;29.80;43.70;;;;;;4954147;29;20527;-78
2023/06/11 15:20:47;;;;;;;14.70;14.10;;;29.40;44.90;;;;;;4953909;29;20800;-79
2023/06/11 15:23:14;;;;;;;16.67;15.90;;;29.20;45.60;;;;;;4953955;29;20996;-79
2023/06/11 15:25:40;;;;;;;15.57;14.87;;;29.00;45.90;;;;;;4944438;29;20449;-79
2023/06/11 15:28:09;;;;;;;16.10;15.40;;;29.00;46.90;;;;;;4944574;29;20449;-78
2023/06/11 15:30:36;;;;;;;15.63;14.93;;;29.10;46.50;;;;;;4939810;28;20449;-77
2023/06/11 15:33:02;;;;;;;16.93;16.03;;;29.10;46.50;;;;;;4940654;29;20519;-77
2023/06/11 15:35:29;;;;;;;16.57;15.77;;;29.20;46.30;;;;;;4943194;29;20487;-77
2023/06/11 15:37:56;;;;;;;16.40;15.60;;;29.20;46.00;;;;;;4945000;29;20448;-78
2023/06/11 15:40:22;;;;;;;16.40;15.60;;;29.10;46.30;;;;;;4943328;29;20448;-78
2023/06/11 15:42:49;;;;;;;15.83;14.97;;;28.90;47.10;;;;;;4940620;29;20460;-77
2023/06/11 15:45:17;;;;;;;15.83;15.13;;;28.80;47.20;;;;;;4944447;29;20440;-77
2023/06/11 15:47:45;;;;;;;15.70;14.90;;;28.80;47.70;;;;;;4943158;29;20452;-77
2023/06/11 15:50:11;;;;;;;16.20;15.50;;;28.80;47.50;;;;;;4942934;29;20945;-77
2023/06/11 15:52:38;;;;;;;15.13;14.43;;;28.80;46.80;;;;;;4942413;29;20469;-77
2023/06/11 15:55:06;;;;;;;16.40;15.50;;;28.70;46.20;;;;;;4950396;29;20480;-77
2023/06/11 15:57:32;;;;;;;15.23;14.43;;;28.70;44.90;;;;;;4953441;29;20463;-79
2023/06/11 15:59:59;;;;;;;15.90;15.20;;;28.60;45.70;;;;;;4953672;29;20456;-78
2023/06/11 16:02:27;;;;;;;16.37;15.47;;;28.70;45.90;;;;;;4953808;29;20449;-78
2023/06/11 16:04:54;;;;;;;15.77;14.90;;;28.80;46.10;;;;;;4952582;28;20867;-78
2023/06/11 16:07:21;;;;;;;16.53;15.73;;;28.70;46.10;;;;;;4953070;29;20456;-78
2023/06/11 16:09:47;;;;;;;15.97;15.27;;;28.60;46.30;;;;;;4953269;29;20453;-78
2023/06/11 16:12:14;;;;;;;15.57;14.77;;;28.70;45.90;;;;;;4953134;29;20456;-77
2023/06/11 16:14:41;;;;;;;15.97;15.17;;;28.70;46.00;;;;;;4953165;29;20453;-78
2023/06/11 16:17:08;;;;;;;16.50;15.60;;;28.80;46.30;;;;;;4948582;29;20449;-77
2023/06/11 16:19:36;;;;;;;16.07;15.37;;;28.70;46.50;;;;;;4943745;29;20529;-77
2023/06/11 16:22:03;;;;;;;15.73;15.03;;;28.60;47.30;;;;;;4944394;29;20465;-78
2023/06/11 16:24:30;;;;;;;15.77;15.07;;;28.50;46.60;;;;;;4943042;29;20480;-77
2023/06/11 16:26:56;;;;;;;15.63;14.90;;;28.50;47.20;;;;;;4942052;29;20468;-77
2023/06/11 16:29:23;;;;;;;16.73;15.93;;;28.50;46.10;;;;;;4934004;29;20461;-77
2023/06/11 16:31:50;;;;;;;16.97;16.17;;;28.50;46.00;;;;;;4938685;29;20552;-77
2023/06/11 16:34:17;;;;;;;16.97;15.97;;;28.50;46.60;;;;;;4943166;29;20445;-76
2023/06/11 16:36:45;;;;;;;15.10;14.40;;;28.40;47.00;;;;;;4941402;29;20489;-76
2023/06/11 16:39:12;;;;;;;15.97;15.17;;;28.40;47.10;;;;;;4943149;29;20453;-77
2023/06/11 16:41:39;;;;;;;14.67;13.97;;;28.50;48.00;;;;;;4943290;29;20792;-76
2023/06/11 16:44:06;;;;;;;15.53;14.77;;;28.50;47.90;;;;;;4941528;29;20459;-76
2023/06/11 16:46:33;;;;;;;16.27;15.37;;;28.50;47.70;;;;;;4944049;29;20452;-75
2023/06/11 16:48:59;;;;;;;15.93;15.00;;;28.50;47.40;;;;;;4939552;29;20458;-79
2023/06/11 16:51:27;;;;;;;15.87;15.10;;;28.50;47.70;;;;;;4933892;29;20453;-78
2023/06/11 16:53:55;;;;;;;16.43;15.57;;;28.40;48.10;;;;;;4933327;29;20458;-77